地図

経路データ

SID SEASON NUMBER BASIN SUBBASIN NAME ISO_TIME NATURE LAT LON WMO_WIND WMO_PRES WMO_AGENCY TRACK_TYPE DIST2LAND LANDFALL IFLAG USA_AGENCY USA_ATCF_ID USA_LAT USA_LON USA_RECORD USA_STATUS USA_WIND USA_PRES USA_SSHS USA_R34_NE USA_R34_SE USA_R34_SW USA_R34_NW USA_R50_NE USA_R50_SE USA_R50_SW USA_R50_NW USA_R64_NE USA_R64_SE USA_R64_SW USA_R64_NW USA_POCI USA_ROCI USA_RMW USA_EYE TOKYO_LAT TOKYO_LON TOKYO_GRADE TOKYO_WIND TOKYO_PRES TOKYO_R50_DIR TOKYO_R50_LONG TOKYO_R50_SHORT TOKYO_R30_DIR TOKYO_R30_LONG TOKYO_R30_SHORT TOKYO_LAND CMA_LAT CMA_LON CMA_CAT CMA_WIND CMA_PRES HKO_LAT HKO_LON HKO_CAT HKO_WIND HKO_PRES NEWDELHI_LAT NEWDELHI_LON NEWDELHI_GRADE NEWDELHI_WIND NEWDELHI_PRES NEWDELHI_CI NEWDELHI_DP NEWDELHI_POCI REUNION_LAT REUNION_LON REUNION_TYPE REUNION_WIND REUNION_PRES REUNION_TNUM REUNION_CI REUNION_RMW REUNION_R34_NE REUNION_R34_SE REUNION_R34_SW REUNION_R34_NW REUNION_R50_NE REUNION_R50_SE REUNION_R50_SW REUNION_R50_NW REUNION_R64_NE REUNION_R64_SE REUNION_R64_SW REUNION_R64_NW BOM_LAT BOM_LON BOM_TYPE BOM_WIND BOM_PRES BOM_TNUM BOM_CI BOM_RMW BOM_R34_NE BOM_R34_SE BOM_R34_SW BOM_R34_NW BOM_R50_NE BOM_R50_SE BOM_R50_SW BOM_R50_NW BOM_R64_NE BOM_R64_SE BOM_R64_SW BOM_R64_NW BOM_ROCI BOM_POCI BOM_EYE BOM_POS_METHOD BOM_PRES_METHOD NADI_LAT NADI_LON NADI_CAT NADI_WIND NADI_PRES WELLINGTON_LAT WELLINGTON_LON WELLINGTON_WIND WELLINGTON_PRES DS824_LAT DS824_LON DS824_STAGE DS824_WIND DS824_PRES TD9636_LAT TD9636_LON TD9636_STAGE TD9636_WIND TD9636_PRES TD9635_LAT TD9635_LON TD9635_WIND TD9635_PRES TD9635_ROCI NEUMANN_LAT NEUMANN_LON NEUMANN_CLASS NEUMANN_WIND NEUMANN_PRES MLC_LAT MLC_LON MLC_CLASS MLC_WIND MLC_PRES USA_GUST BOM_GUST BOM_GUST_PER REUNION_GUST REUNION_GUST_PER USA_SEAHGT USA_SEARAD_NE USA_SEARAD_SE USA_SEARAD_SW USA_SEARAD_NW STORM_SPEED STORM_DIR
1978260N18124 1978 92 WP MM NOT_NAMED 1978-09-17 00:00:00 TS 17.5000 123.500 main 118 71 __O___________ -1 17.5000 123.500 0 1006 11 287
1978260N18124 1978 92 WP MM NOT_NAMED 1978-09-17 03:00:00 TS 17.6636 122.951 main 77 42 __P___________ -1 17.6636 122.951 0 1005 10 287
1978260N18124 1978 92 WP MM NOT_NAMED 1978-09-17 06:00:00 TS 17.8000 122.500 main 42 10 __O___________ -1 17.8000 122.500 0 19 1004 8 287
1978260N18124 1978 92 WP MM NOT_NAMED 1978-09-17 09:00:00 TS 17.8979 122.149 main 0 0 __P___________ -1 17.8979 122.149 0 21 1004 10 282
1978260N18124 1978 92 WP MM NOT_NAMED 1978-09-17 12:00:00 TS 18.0000 121.500 main 0 0 __O___________ -1 18.0000 121.500 1 23 1004 20 278
1978260N18124 1978 92 WP MM NOT_NAMED 1978-09-17 15:00:00 TS 18.1988 120.031 main 54 54 __P___________ -1 18.1988 120.031 1 26 1002 29 276
1978260N18124 1978 92 WP MM NOT_NAMED 1978-09-17 18:00:00 TS 18.3000 118.500 main 205 205 __O___________ -1 18.3000 118.500 1 29 1000 23 269
1978260N18124 1978 92 WP MM NOT_NAMED 1978-09-17 21:00:00 TS 18.1506 117.657 main 283 283 __P___________ -1 18.1506 117.657 1 29 1000 14 253
1978260N18124 1978 92 WP MM NOT_NAMED 1978-09-18 00:00:00 TS 17.9000 117.100 main 338 338 __O___________ -1 17.9000 117.100 1 29 1000 12 247
1978260N18124 1978 92 WP MM NOT_NAMED 1978-09-18 03:00:00 TS 17.7071 116.535 main 384 384 __P___________ -1 17.7071 116.535 1 29 1000 11 249
1978260N18124 1978 92 WP MM NOT_NAMED 1978-09-18 06:00:00 TS 17.5000 116.000 main 426 426 __O___________ -1 17.5000 116.000 1 29 1000 12 248
1978260N18124 1978 92 WP MM NOT_NAMED 1978-09-18 09:00:00 TS 17.2726 115.385 main 480 480 __P___________ -1 17.2726 115.385 1 29 1000 13 246
1978260N18124 1978 92 WP MM NOT_NAMED 1978-09-18 12:00:00 TS 17.0000 114.800 main 495 475 __O___________ -1 17.0000 114.800 1 29 1000 12 238
1978260N18124 1978 92 WP MM NOT_NAMED 1978-09-18 15:00:00 TS 16.6347 114.327 main 471 456 __P___________ -1 16.6347 114.327 1 29 999 11 231
1978260N18124 1978 92 WP MM NOT_NAMED 1978-09-18 18:00:00 TS 16.3000 113.900 main 456 438 __O___________ -1 16.3000 113.900 1 29 998 10 238
1978260N18124 1978 92 WP MM NOT_NAMED 1978-09-18 21:00:00 TS 16.0975 113.443 main 431 409 __P___________ -1 16.0975 113.443 1 29 998 9 251
1978260N18124 1978 92 WP MM NOT_NAMED 1978-09-19 00:00:00 TS 16.0000 113.000 main 409 381 __O___________ -1 16.0000 113.000 1 29 998 8 261
1978260N18124 1978 92 WP MM NOT_NAMED 1978-09-19 03:00:00 TS 15.9698 112.600 main 381 356 __P___________ -1 15.9698 112.600 1 29 998 8 273
1978260N18124 1978 92 WP MM NOT_NAMED 1978-09-19 06:00:00 TS 16.0400 112.200 main 356 320 __OO__________ -1 16.0000 112.200 1 29 998 16.2000 112.200 TD 25 997 9 280
1978260N18124 1978 92 WP MM NOT_NAMED 1978-09-19 09:00:00 TS 16.1108 111.728 main 314 270 __PP__________ -1 16.0424 111.773 1 29 998 16.2478 111.640 TD 25 997 10 279
1978260N18124 1978 92 WP MM NOT_NAMED 1978-09-19 12:00:00 TS 16.1857 111.214 main 270 222 __OO__________ -1 16.1000 111.300 1 29 998 16.3000 111.100 TD 25 997 10 278
1978260N18124 1978 92 WP MM NOT_NAMED 1978-09-19 15:00:00 TS 16.2462 110.675 main 222 185 __PP__________ -1 16.1350 110.757 1 29 998 16.3573 110.593 TD 25 997 10 276
1978260N18124 1978 92 WP MM NOT_NAMED 1978-09-19 18:00:00 TS 16.3000 110.150 main 185 146 __OO__________ -1 16.2000 110.200 1 29 998 16.4000 110.100 TD 25 997 10 276
1978260N18124 1978 92 WP MM NOT_NAMED 1978-09-19 21:00:00 TS 16.3448 109.653 main 146 106 __PP__________ -1 16.2822 109.707 1 29 998 16.4074 109.600 TD 25 997 10 279
1978260N18124 1978 92 WP MM NOT_NAMED 1978-09-20 00:00:00 TS 16.4571 109.157 main 111 85 __OO__________ -1 16.5000 109.200 1 29 998 16.4000 109.100 TD 25 997 11 294
1978260N18124 1978 92 WP MM NOT_NAMED 1978-09-20 03:00:00 TS 16.8043 108.601 main 85 84 __PP__________ -1 17.0076 108.601 1 26 999 16.3977 108.600 TD 25 998 14 307
1978260N18124 1978 92 WP MM NOT_NAMED 1978-09-20 06:00:00 TS 17.2800 108.020 main 89 77 __OO__________ -1 17.5000 108.000 1 23 1000 16.4000 108.100 TD 25 1000 14 310
1978260N18124 1978 92 WP MM NOT_NAMED 1978-09-20 09:00:00 TS 17.6897 107.485 main 79 46 __P___________ -1 17.6897 107.485 1 23 1000 TD 11 293
1978260N18124 1978 92 WP MM NOT_NAMED 1978-09-20 12:00:00 TS 17.7000 107.000 main 46 10 __O___________ -1 17.7000 107.000 1 23 1000 9 270
1978260N18124 1978 92 WP MM NOT_NAMED 1978-09-20 15:00:00 TS 17.6893 106.561 main 10 0 __P___________ -1 17.6893 106.561 1 21 1001 10 258
1978260N18124 1978 92 WP MM NOT_NAMED 1978-09-20 18:00:00 TS 17.5000 106.000 main 0 0 __O___________ -1 17.5000 106.000 0 19 1002 16 243
1978260N18124 1978 92 WP MM NOT_NAMED 1978-09-20 21:00:00 TS 16.9858 105.113 main 0 0 __P___________ -1 16.9858 105.113 0 19 1002 20 240
1978260N18124 1978 92 WP MM NOT_NAMED 1978-09-21 00:00:00 TS 16.5000 104.200 main 0 0 __O___________ -1 16.5000 104.200 0 19 1002 16 248
1978260N18124 1978 92 WP MM NOT_NAMED 1978-09-21 03:00:00 TS 16.3796 103.521 main 0 0 __P___________ -1 16.3796 103.521 0 19 1002 12 270
1978260N18124 1978 92 WP MM NOT_NAMED 1978-09-21 06:00:00 TS 16.5000 103.000 main 0 __O___________ -1 16.5000 103.000 0 19 1002 10 284

デジタル台風データ・検索

IBTrACS Databaseについて

本データベースは、米国NOAAが公開する1842年以降の世界の熱帯低気圧のベストトラックデータアーカイブInternational Best Track Archive for Climate Stewardship (IBTrACS)を、ウェブで閲覧しやすい形式に変換したものです。

最終更新日:2021-10-21